sensor_id;sensor_type;location;lat;lon;timestamp;temperature;humidity
11242;DHT22;5678;52.370;9.006;2023-08-06T07:14:55;21.70;99.90
11242;DHT22;5678;52.370;9.006;2023-08-06T07:17:23;22.00;99.90
11242;DHT22;5678;52.370;9.006;2023-08-06T07:19:51;22.50;99.90
11242;DHT22;5678;52.370;9.006;2023-08-06T07:22:19;22.40;99.90
11242;DHT22;5678;52.370;9.006;2023-08-06T07:24:47;22.60;99.90
11242;DHT22;5678;52.370;9.006;2023-08-06T07:27:15;22.40;99.90
11242;DHT22;5678;52.370;9.006;2023-08-06T07:29:43;23.00;99.90
11242;DHT22;5678;52.370;9.006;2023-08-06T07:32:12;23.30;99.90
11242;DHT22;5678;52.370;9.006;2023-08-06T07:34:40;23.60;99.90
11242;DHT22;5678;52.370;9.006;2023-08-06T07:37:08;23.90;99.90
11242;DHT22;5678;52.370;9.006;2023-08-06T07:39:36;24.00;99.90
11242;DHT22;5678;52.370;9.006;2023-08-06T07:42:06;24.10;99.90
11242;DHT22;5678;52.370;9.006;2023-08-06T07:44:34;24.30;99.90
11242;DHT22;5678;52.370;9.006;2023-08-06T07:47:02;24.20;99.90
11242;DHT22;5678;52.370;9.006;2023-08-06T07:49:31;24.40;99.90
11242;DHT22;5678;52.370;9.006;2023-08-06T07:51:59;24.30;99.90
11242;DHT22;5678;52.370;9.006;2023-08-06T07:54:27;24.00;99.90
11242;DHT22;5678;52.370;9.006;2023-08-06T07:56:55;24.10;99.90
11242;DHT22;5678;52.370;9.006;2023-08-06T07:59:23;24.30;99.90
11242;DHT22;5678;52.370;9.006;2023-08-06T08:01:51;24.70;99.90
11242;DHT22;5678;52.370;9.006;2023-08-06T08:04:19;25.30;99.90
11242;DHT22;5678;52.370;9.006;2023-08-06T08:06:50;25.30;99.90
11242;DHT22;5678;52.370;9.006;2023-08-06T08:09:18;25.30;99.90
11242;DHT22;5678;52.370;9.006;2023-08-06T08:11:46;25.30;99.90
11242;DHT22;5678;52.370;9.006;2023-08-06T08:14:14;25.60;99.90
11242;DHT22;5678;52.370;9.006;2023-08-06T08:16:41;25.50;99.90
11242;DHT22;5678;52.370;9.006;2023-08-06T08:19:10;25.20;99.90
11242;DHT22;5678;52.370;9.006;2023-08-06T08:21:37;24.80;99.90
11242;DHT22;5678;52.370;9.006;2023-08-06T08:24:07;24.70;99.90
11242;DHT22;5678;52.370;9.006;2023-08-06T08:26:35;24.60;99.90
11242;DHT22;5678;52.370;9.006;2023-08-06T08:29:11;24.50;99.90
11242;DHT22;5678;52.370;9.006;2023-08-06T08:31:39;24.50;99.90
11242;DHT22;5678;52.370;9.006;2023-08-06T08:34:09;24.40;99.90
11242;DHT22;5678;52.370;9.006;2023-08-06T08:36:36;24.50;99.90
11242;DHT22;5678;52.370;9.006;2023-08-06T08:39:04;24.30;99.90
11242;DHT22;5678;52.370;9.006;2023-08-06T08:41:36;24.40;99.90
11242;DHT22;5678;52.370;9.006;2023-08-06T08:44:06;24.20;99.90
11242;DHT22;5678;52.370;9.006;2023-08-06T08:46:35;24.10;99.90
11242;DHT22;5678;52.370;9.006;2023-08-06T08:49:04;24.20;99.90
11242;DHT22;5678;52.370;9.006;2023-08-06T08:51:33;24.10;99.90
11242;DHT22;5678;52.370;9.006;2023-08-06T08:54:03;24.00;99.90
11242;DHT22;5678;52.370;9.006;2023-08-06T08:56:35;23.70;99.90
11242;DHT22;5678;52.370;9.006;2023-08-06T08:59:03;23.60;99.90
11242;DHT22;5678;52.370;9.006;2023-08-06T09:01:32;23.30;99.90
11242;DHT22;5678;52.370;9.006;2023-08-06T09:04:01;23.10;99.90
11242;DHT22;5678;52.370;9.006;2023-08-06T09:06:32;23.00;99.90
11242;DHT22;5678;52.370;9.006;2023-08-06T09:09:04;23.10;99.90
11242;DHT22;5678;52.370;9.006;2023-08-06T09:11:39;23.40;99.90
11242;DHT22;5678;52.370;9.006;2023-08-06T09:14:11;23.70;99.90
11242;DHT22;5678;52.370;9.006;2023-08-06T09:16:39;24.00;99.90
11242;DHT22;5678;52.370;9.006;2023-08-06T09:19:14;24.30;99.90
11242;DHT22;5678;52.370;9.006;2023-08-06T09:21:44;24.60;99.90
11242;DHT22;5678;52.370;9.006;2023-08-06T09:24:15;24.90;99.90
11242;DHT22;5678;52.370;9.006;2023-08-06T09:26:45;25.20;99.90
11242;DHT22;5678;52.370;9.006;2023-08-06T09:29:12;24.90;99.90
11242;DHT22;5678;52.370;9.006;2023-08-06T09:31:42;25.10;99.90
11242;DHT22;5678;52.370;9.006;2023-08-06T09:34:15;25.40;99.90
11242;DHT22;5678;52.370;9.006;2023-08-06T09:36:46;25.80;99.90
11242;DHT22;5678;52.370;9.006;2023-08-06T09:39:15;26.10;99.90
11242;DHT22;5678;52.370;9.006;2023-08-06T09:41:45;26.00;99.90
11242;DHT22;5678;52.370;9.006;2023-08-06T09:44:18;25.80;99.90
11242;DHT22;5678;52.370;9.006;2023-08-06T09:46:50;25.60;99.90
11242;DHT22;5678;52.370;9.006;2023-08-06T09:49:20;25.10;99.90
11242;DHT22;5678;52.370;9.006;2023-08-06T09:51:51;24.90;99.90
11242;DHT22;5678;52.370;9.006;2023-08-06T09:54:23;24.70;99.90
11242;DHT22;5678;52.370;9.006;2023-08-06T09:56:55;24.40;99.90
11242;DHT22;5678;52.370;9.006;2023-08-06T09:59:23;24.10;99.90
11242;DHT22;5678;52.370;9.006;2023-08-06T10:01:54;23.70;99.90
11242;DHT22;5678;52.370;9.006;2023-08-06T10:04:23;23.90;99.90
11242;DHT22;5678;52.370;9.006;2023-08-06T10:07:01;23.80;99.90
11242;DHT22;5678;52.370;9.006;2023-08-06T10:09:29;23.50;99.90
11242;DHT22;5678;52.370;9.006;2023-08-06T10:12:00;23.70;99.90
11242;DHT22;5678;52.370;9.006;2023-08-06T10:14:30;24.10;99.90
11242;DHT22;5678;52.370;9.006;2023-08-06T10:16:59;24.60;99.90
11242;DHT22;5678;52.370;9.006;2023-08-06T10:19:29;25.00;99.90
11242;DHT22;5678;52.370;9.006;2023-08-06T10:22:11;25.20;99.90
11242;DHT22;5678;52.370;9.006;2023-08-06T10:24:46;25.60;99.90
11242;DHT22;5678;52.370;9.006;2023-08-06T10:27:20;25.60;99.90
11242;DHT22;5678;52.370;9.006;2023-08-06T10:29:48;25.70;99.90
11242;DHT22;5678;52.370;9.006;2023-08-06T10:32:16;26.00;99.90
11242;DHT22;5678;52.370;9.006;2023-08-06T10:34:56;26.10;99.90
11242;DHT22;5678;52.370;9.006;2023-08-06T10:37:27;25.90;99.90
11242;DHT22;5678;52.370;9.006;2023-08-06T10:40:02;25.80;99.90
11242;DHT22;5678;52.370;9.006;2023-08-06T10:45:17;25.30;99.90
11242;DHT22;5678;52.370;9.006;2023-08-06T10:47:45;25.40;99.90
11242;DHT22;5678;52.370;9.006;2023-08-06T10:50:15;25.30;99.90
11242;DHT22;5678;52.370;9.006;2023-08-06T10:52:43;25.40;99.90
11242;DHT22;5678;52.370;9.006;2023-08-06T10:55:11;25.20;99.90
11242;DHT22;5678;52.370;9.006;2023-08-06T10:57:41;25.00;99.90
11242;DHT22;5678;52.370;9.006;2023-08-06T11:00:10;24.90;99.90
11242;DHT22;5678;52.370;9.006;2023-08-06T11:02:43;25.10;99.90
11242;DHT22;5678;52.370;9.006;2023-08-06T11:10:12;24.90;99.90
11242;DHT22;5678;52.370;9.006;2023-08-06T11:12:41;25.10;99.90
11242;DHT22;5678;52.370;9.006;2023-08-06T11:15:10;24.90;99.90
11242;DHT22;5678;52.370;9.006;2023-08-06T11:17:40;24.60;99.90
11242;DHT22;5678;52.370;9.006;2023-08-06T11:20:09;24.20;99.90
11242;DHT22;5678;52.370;9.006;2023-08-06T11:22:37;24.30;99.90
11242;DHT22;5678;52.370;9.006;2023-08-06T11:25:07;24.30;99.90
11242;DHT22;5678;52.370;9.006;2023-08-06T11:27:35;24.20;99.90
11242;DHT22;5678;52.370;9.006;2023-08-06T11:30:05;24.10;99.90
11242;DHT22;5678;52.370;9.006;2023-08-06T11:32:34;24.00;99.90
11242;DHT22;5678;52.370;9.006;2023-08-06T11:35:12;23.90;99.90
11242;DHT22;5678;52.370;9.006;2023-08-06T11:37:44;23.70;99.90
11242;DHT22;5678;52.370;9.006;2023-08-06T11:40:14;23.70;99.90
11242;DHT22;5678;52.370;9.006;2023-08-06T11:42:42;23.80;99.90
11242;DHT22;5678;52.370;9.006;2023-08-06T11:45:12;23.60;99.90
11242;DHT22;5678;52.370;9.006;2023-08-06T16:06:04;20.40;99.90
11242;DHT22;5678;52.370;9.006;2023-08-06T17:40:34;18.20;99.90
11242;DHT22;5678;52.370;9.006;2023-08-06T17:43:02;18.10;99.90
11242;DHT22;5678;52.370;9.006;2023-08-06T17:45:30;18.20;99.90
11242;DHT22;5678;52.370;9.006;2023-08-06T17:47:58;18.10;99.90
11242;DHT22;5678;52.370;9.006;2023-08-06T17:50:26;17.90;99.90
11242;DHT22;5678;52.370;9.006;2023-08-06T17:52:55;17.80;99.90
11242;DHT22;5678;52.370;9.006;2023-08-06T17:55:24;17.70;99.90
11242;DHT22;5678;52.370;9.006;2023-08-06T17:57:53;17.70;99.90
11242;DHT22;5678;52.370;9.006;2023-08-06T18:00:21;17.60;99.90
11242;DHT22;5678;52.370;9.006;2023-08-06T18:02:49;17.50;99.90
11242;DHT22;5678;52.370;9.006;2023-08-06T18:05:17;17.50;99.90
11242;DHT22;5678;52.370;9.006;2023-08-06T18:07:45;16.80;99.90
11242;DHT22;5678;52.370;9.006;2023-08-06T18:10:13;17.50;99.90
11242;DHT22;5678;52.370;9.006;2023-08-06T18:12:42;17.30;99.90
11242;DHT22;5678;52.370;9.006;2023-08-06T18:15:11;17.10;99.90
11242;DHT22;5678;52.370;9.006;2023-08-06T18:17:39;17.00;99.90
11242;DHT22;5678;52.370;9.006;2023-08-06T18:20:09;16.80;99.90
11242;DHT22;5678;52.370;9.006;2023-08-06T18:22:37;16.70;99.90
11242;DHT22;5678;52.370;9.006;2023-08-06T18:25:06;16.60;99.90
11242;DHT22;5678;52.370;9.006;2023-08-06T18:27:35;16.50;99.90
11242;DHT22;5678;52.370;9.006;2023-08-06T18:30:05;16.30;99.90
11242;DHT22;5678;52.370;9.006;2023-08-06T18:32:34;16.50;99.90
11242;DHT22;5678;52.370;9.006;2023-08-06T18:35:02;16.10;99.90
11242;DHT22;5678;52.370;9.006;2023-08-06T18:37:30;16.00;99.90
11242;DHT22;5678;52.370;9.006;2023-08-06T18:39:58;16.00;99.90
11242;DHT22;5678;52.370;9.006;2023-08-06T18:42:29;15.90;99.90
11242;DHT22;5678;52.370;9.006;2023-08-06T18:44:57;15.80;99.90
11242;DHT22;5678;52.370;9.006;2023-08-06T18:47:27;15.70;99.90
11242;DHT22;5678;52.370;9.006;2023-08-06T18:49:55;15.80;99.90
11242;DHT22;5678;52.370;9.006;2023-08-06T18:52:23;15.70;99.90
11242;DHT22;5678;52.370;9.006;2023-08-06T18:54:51;15.60;99.90
11242;DHT22;5678;52.370;9.006;2023-08-06T18:57:19;15.70;99.90
11242;DHT22;5678;52.370;9.006;2023-08-06T18:59:49;15.50;99.90
11242;DHT22;5678;52.370;9.006;2023-08-06T19:02:18;15.50;99.90
11242;DHT22;5678;52.370;9.006;2023-08-06T19:04:48;15.40;99.90
11242;DHT22;5678;52.370;9.006;2023-08-06T19:07:17;15.40;99.90
11242;DHT22;5678;52.370;9.006;2023-08-06T19:09:45;14.80;99.90
11242;DHT22;5678;52.370;9.006;2023-08-06T19:12:14;16.00;99.90
11242;DHT22;5678;52.370;9.006;2023-08-06T19:15:00;16.30;99.90
11242;DHT22;5678;52.370;9.006;2023-08-06T19:17:28;15.30;99.90
11242;DHT22;5678;52.370;9.006;2023-08-06T19:19:58;15.10;99.90
11242;DHT22;5678;52.370;9.006;2023-08-06T19:22:26;15.10;99.90
11242;DHT22;5678;52.370;9.006;2023-08-06T19:24:54;16.10;99.90
11242;DHT22;5678;52.370;9.006;2023-08-06T19:27:23;15.20;99.90
11242;DHT22;5678;52.370;9.006;2023-08-06T19:29:51;15.50;99.90
11242;DHT22;5678;52.370;9.006;2023-08-06T19:32:19;15.70;99.90
11242;DHT22;5678;52.370;9.006;2023-08-06T19:34:48;15.60;99.90
11242;DHT22;5678;52.370;9.006;2023-08-06T19:37:17;13.30;99.90
11242;DHT22;5678;52.370;9.006;2023-08-06T19:39:50;14.20;99.90
11242;DHT22;5678;52.370;9.006;2023-08-06T19:42:18;15.80;99.90
11242;DHT22;5678;52.370;9.006;2023-08-06T19:44:46;15.10;99.90
11242;DHT22;5678;52.370;9.006;2023-08-06T19:47:15;15.10;99.90
11242;DHT22;5678;52.370;9.006;2023-08-06T19:49:43;15.10;99.90
11242;DHT22;5678;52.370;9.006;2023-08-06T19:52:11;15.00;99.90
11242;DHT22;5678;52.370;9.006;2023-08-06T19:54:40;14.50;99.90
11242;DHT22;5678;52.370;9.006;2023-08-06T19:57:08;15.70;99.90
11242;DHT22;5678;52.370;9.006;2023-08-06T19:59:37;15.20;99.90
11242;DHT22;5678;52.370;9.006;2023-08-06T20:02:05;15.60;99.90
11242;DHT22;5678;52.370;9.006;2023-08-06T20:04:34;13.20;99.90
11242;DHT22;5678;52.370;9.006;2023-08-06T20:07:02;15.20;99.90
11242;DHT22;5678;52.370;9.006;2023-08-06T20:09:31;15.40;99.90
11242;DHT22;5678;52.370;9.006;2023-08-06T20:12:00;15.20;99.90
11242;DHT22;5678;52.370;9.006;2023-08-06T20:14:29;15.30;99.90
11242;DHT22;5678;52.370;9.006;2023-08-06T20:16:57;15.40;99.90
11242;DHT22;5678;52.370;9.006;2023-08-06T20:19:25;15.30;99.90
11242;DHT22;5678;52.370;9.006;2023-08-06T20:21:53;16.00;99.90
11242;DHT22;5678;52.370;9.006;2023-08-06T20:24:22;15.70;99.90
11242;DHT22;5678;52.370;9.006;2023-08-06T20:26:50;15.50;99.90
11242;DHT22;5678;52.370;9.006;2023-08-06T20:29:20;15.40;99.90
11242;DHT22;5678;52.370;9.006;2023-08-06T20:31:48;15.50;99.90
11242;DHT22;5678;52.370;9.006;2023-08-06T20:34:16;17.10;99.90
11242;DHT22;5678;52.370;9.006;2023-08-06T20:36:44;15.40;99.90
11242;DHT22;5678;52.370;9.006;2023-08-06T20:39:12;14.80;99.90
11242;DHT22;5678;52.370;9.006;2023-08-06T20:41:40;17.60;99.90
11242;DHT22;5678;52.370;9.006;2023-08-06T20:44:08;15.50;99.90
11242;DHT22;5678;52.370;9.006;2023-08-06T20:46:38;15.00;99.90
11242;DHT22;5678;52.370;9.006;2023-08-06T20:49:06;15.70;99.90
11242;DHT22;5678;52.370;9.006;2023-08-06T20:51:34;15.30;99.90
11242;DHT22;5678;52.370;9.006;2023-08-06T20:54:02;14.80;99.90
11242;DHT22;5678;52.370;9.006;2023-08-06T20:56:30;15.20;99.90
11242;DHT22;5678;52.370;9.006;2023-08-06T20:58:59;14.90;99.90
11242;DHT22;5678;52.370;9.006;2023-08-06T21:01:27;15.30;99.90
11242;DHT22;5678;52.370;9.006;2023-08-06T21:03:56;15.30;99.90
11242;DHT22;5678;52.370;9.006;2023-08-06T21:06:24;14.80;99.90
11242;DHT22;5678;52.370;9.006;2023-08-06T21:08:53;14.00;99.90
11242;DHT22;5678;52.370;9.006;2023-08-06T21:11:21;18.20;99.90
11242;DHT22;5678;52.370;9.006;2023-08-06T21:13:49;15.00;99.90
11242;DHT22;5678;52.370;9.006;2023-08-06T21:16:17;14.80;99.90
11242;DHT22;5678;52.370;9.006;2023-08-06T21:18:45;14.90;99.90
11242;DHT22;5678;52.370;9.006;2023-08-06T21:21:15;14.60;99.90
11242;DHT22;5678;52.370;9.006;2023-08-06T21:23:43;15.50;99.90
11242;DHT22;5678;52.370;9.006;2023-08-06T21:26:11;15.50;99.90
11242;DHT22;5678;52.370;9.006;2023-08-06T21:28:39;16.20;99.90
11242;DHT22;5678;52.370;9.006;2023-08-06T21:31:08;15.20;99.90
11242;DHT22;5678;52.370;9.006;2023-08-06T21:33:38;15.30;99.90
11242;DHT22;5678;52.370;9.006;2023-08-06T21:36:08;15.30;99.90
11242;DHT22;5678;52.370;9.006;2023-08-06T21:38:38;16.70;99.90
11242;DHT22;5678;52.370;9.006;2023-08-06T21:41:08;15.30;99.90
11242;DHT22;5678;52.370;9.006;2023-08-06T21:43:38;15.20;99.90
11242;DHT22;5678;52.370;9.006;2023-08-06T21:46:08;15.30;99.90
11242;DHT22;5678;52.370;9.006;2023-08-06T21:48:39;15.30;99.90
11242;DHT22;5678;52.370;9.006;2023-08-06T21:51:09;15.20;99.90
11242;DHT22;5678;52.370;9.006;2023-08-06T21:53:38;15.20;99.90
11242;DHT22;5678;52.370;9.006;2023-08-06T21:56:08;15.80;99.90
11242;DHT22;5678;52.370;9.006;2023-08-06T21:58:38;16.00;99.90
11242;DHT22;5678;52.370;9.006;2023-08-06T22:01:07;15.10;99.90
11242;DHT22;5678;52.370;9.006;2023-08-06T22:03:37;15.10;99.90
11242;DHT22;5678;52.370;9.006;2023-08-06T22:06:06;15.10;99.90
11242;DHT22;5678;52.370;9.006;2023-08-06T22:08:35;15.10;99.90
11242;DHT22;5678;52.370;9.006;2023-08-06T22:11:04;13.90;99.90
11242;DHT22;5678;52.370;9.006;2023-08-06T22:13:32;15.30;99.90
11242;DHT22;5678;52.370;9.006;2023-08-06T22:16:01;15.30;99.90
11242;DHT22;5678;52.370;9.006;2023-08-06T22:18:29;15.20;99.90
11242;DHT22;5678;52.370;9.006;2023-08-06T22:20:58;15.00;99.90
11242;DHT22;5678;52.370;9.006;2023-08-06T22:23:26;15.20;99.90
11242;DHT22;5678;52.370;9.006;2023-08-06T22:25:54;15.30;99.90
11242;DHT22;5678;52.370;9.006;2023-08-06T22:28:25;15.20;99.90
11242;DHT22;5678;52.370;9.006;2023-08-06T22:30:53;16.60;99.90
11242;DHT22;5678;52.370;9.006;2023-08-06T22:33:21;15.90;99.90
11242;DHT22;5678;52.370;9.006;2023-08-06T22:35:52;14.80;99.90
11242;DHT22;5678;52.370;9.006;2023-08-06T22:38:20;14.80;99.90
11242;DHT22;5678;52.370;9.006;2023-08-06T22:40:48;15.40;99.90
11242;DHT22;5678;52.370;9.006;2023-08-06T22:43:16;15.10;99.90
11242;DHT22;5678;52.370;9.006;2023-08-06T22:45:46;14.90;99.90
11242;DHT22;5678;52.370;9.006;2023-08-06T22:48:14;15.00;99.90
11242;DHT22;5678;52.370;9.006;2023-08-06T22:50:42;15.30;99.90
11242;DHT22;5678;52.370;9.006;2023-08-06T22:53:12;15.00;99.90
11242;DHT22;5678;52.370;9.006;2023-08-06T22:55:40;15.30;99.90
11242;DHT22;5678;52.370;9.006;2023-08-06T22:58:28;15.40;99.90
11242;DHT22;5678;52.370;9.006;2023-08-06T23:00:58;15.40;99.90
11242;DHT22;5678;52.370;9.006;2023-08-06T23:03:28;15.50;99.90
11242;DHT22;5678;52.370;9.006;2023-08-06T23:05:56;15.00;99.90
11242;DHT22;5678;52.370;9.006;2023-08-06T23:08:25;14.20;99.90
11242;DHT22;5678;52.370;9.006;2023-08-06T23:10:53;15.00;99.90
11242;DHT22;5678;52.370;9.006;2023-08-06T23:13:21;15.00;99.90
11242;DHT22;5678;52.370;9.006;2023-08-06T23:15:49;15.00;99.90
11242;DHT22;5678;52.370;9.006;2023-08-06T23:18:19;14.90;99.90
11242;DHT22;5678;52.370;9.006;2023-08-06T23:20:47;15.10;99.90
11242;DHT22;5678;52.370;9.006;2023-08-06T23:23:15;15.00;99.90
11242;DHT22;5678;52.370;9.006;2023-08-06T23:25:43;15.10;99.90
11242;DHT22;5678;52.370;9.006;2023-08-06T23:28:12;15.00;99.90
11242;DHT22;5678;52.370;9.006;2023-08-06T23:30:40;14.90;99.90
